Terminal Aerodrome Forecast
Issued by NWS Louisville, KY

Home | Current Version | Previous Version | Text Only | Print | Product List | Glossary On
Versions: 1 2 3 4 5 6 7 8 9 10 11 12
000
FTUS43 KLMK 211720
TAFBWG
TAF
KBWG 211720Z 2118/2218 21012G18KT P6SM FEW250
     FM212300 23007KT P6SM SCT250
     FM220200 29004KT P6SM BKN250
     FM220800 35007KT P6SM FEW200=

USA.gov is the U.S. government's official web portal to all federal, state and local government web resources and services.